N828WW KGBD-KPHX
Flight info
| Callsign | N828WW |
|---|---|
| Flight time | 1h 43m |
| Altitude | 43000 |
| Route | ZIGEE EBIDE ZUN EAGUL6 |
| Aircraft | C750/M-SBDE3FGHRWXY/S |
Departure
| Time | 2026-05-07 19:12 |
|---|---|
| Airport | Great Bend Municipal Airport (KGBD) |
Arrival
| Time | 2026-05-07 20:55 |
|---|---|
| Airport | Phoenix Sky Harbor International Airport (KPHX) |
| Time | Latitude | Longitude | Altitude | Speed | Heading |
|---|---|---|---|---|---|
| 2026-05-07 18:57 | 38.34470 | -98.85520 | 1889 ft | 0 kts | 94° |
| 2026-05-07 19:05 | 38.34470 | -98.85539 | 1913 ft | 4 kts | 150° |
| 2026-05-07 19:05 | 38.34476 | -98.85541 | 1903 ft | 1 kts | 180° |
| 2026-05-07 19:05 | 38.34477 | -98.85541 | 1904 ft | 0 kts | 180° |
| 2026-05-07 19:07 | 38.34473 | -98.85541 | 1913 ft | 3 kts | 180° |
| 2026-05-07 19:07 | 38.34429 | -98.85541 | 1884 ft | 10 kts | 180° |
| 2026-05-07 19:07 | 38.34345 | -98.85540 | 1889 ft | 14 kts | 179° |
| 2026-05-07 19:07 | 38.34250 | -98.85538 | 1889 ft | 13 kts | 179° |
| 2026-05-07 19:08 | 38.34167 | -98.85538 | 1889 ft | 11 kts | 180° |
| 2026-05-07 19:08 | 38.34096 | -98.85537 | 1889 ft | 9 kts | 179° |
| 2026-05-07 19:08 | 38.34035 | -98.85536 | 1889 ft | 8 kts | 179° |
| 2026-05-07 19:08 | 38.33983 | -98.85534 | 1889 ft | 7 kts | 179° |
| 2026-05-07 19:09 | 38.33939 | -98.85533 | 1889 ft | 6 kts | 179° |
| 2026-05-07 19:09 | 38.33903 | -98.85532 | 1889 ft | 5 kts | 178° |
| 2026-05-07 19:09 | 38.33876 | -98.85531 | 1889 ft | 4 kts | 178° |
| 2026-05-07 19:09 | 38.33842 | -98.85530 | 1888 ft | 6 kts | 178° |
| 2026-05-07 19:10 | 38.33770 | -98.85528 | 1884 ft | 15 kts | 182° |
| 2026-05-07 19:10 | 38.33658 | -98.85544 | 1882 ft | 14 kts | 224° |
| 2026-05-07 19:10 | 38.33673 | -98.85619 | 1889 ft | 7 kts | 301° |
| 2026-05-07 19:10 | 38.33704 | -98.85684 | 1883 ft | 9 kts | 301° |
| 2026-05-07 19:11 | 38.33743 | -98.85718 | 1888 ft | 7 kts | 0° |
| 2026-05-07 19:11 | 38.33791 | -98.85719 | 1889 ft | 36 kts | 358° |
| 2026-05-07 19:11 | 38.34432 | -98.85734 | 1883 ft | 141 kts | 359° |
| 2026-05-07 19:11 | 38.35555 | -98.85718 | 2161 ft | 171 kts | 355° |
| 2026-05-07 19:12 | 38.36560 | -98.86186 | 3004 ft | 145 kts | 300° |
| 2026-05-07 19:12 | 38.36744 | -98.87257 | 4094 ft | 104 kts | 272° |
| 2026-05-07 19:12 | 38.36799 | -98.88143 | 4942 ft | 108 kts | 275° |
| 2026-05-07 19:12 | 38.36860 | -98.89262 | 5117 ft | 139 kts | 278° |
| 2026-05-07 19:13 | 38.36919 | -98.90475 | 5864 ft | 139 kts | 274° |
| 2026-05-07 19:13 | 38.36934 | -98.91765 | 6449 ft | 153 kts | 273° |
| 2026-05-07 19:13 | 38.36951 | -98.93207 | 6923 ft | 172 kts | 274° |
| 2026-05-07 19:13 | 38.36970 | -98.94855 | 7423 ft | 201 kts | 274° |
| 2026-05-07 19:14 | 38.36985 | -98.96776 | 7936 ft | 233 kts | 271° |
| 2026-05-07 19:14 | 38.36625 | -98.98947 | 8417 ft | 268 kts | 257° |
| 2026-05-07 19:14 | 38.36016 | -99.01256 | 9386 ft | 272 kts | 255° |
| 2026-05-07 19:14 | 38.35447 | -99.03545 | 10536 ft | 272 kts | 259° |
| 2026-05-07 19:15 | 38.34993 | -99.05913 | 11353 ft | 278 kts | 261° |
| 2026-05-07 19:15 | 38.34540 | -99.08316 | 12279 ft | 281 kts | 260° |
| 2026-05-07 19:15 | 38.34034 | -99.10745 | 13173 ft | 286 kts | 259° |
| 2026-05-07 19:15 | 38.33512 | -99.13212 | 14021 ft | 291 kts | 259° |
| 2026-05-07 19:16 | 38.32999 | -99.15710 | 14873 ft | 292 kts | 259° |
| 2026-05-07 19:16 | 38.32486 | -99.18221 | 15742 ft | 294 kts | 259° |
| 2026-05-07 19:16 | 38.31965 | -99.20747 | 16607 ft | 296 kts | 259° |
| 2026-05-07 19:16 | 38.31443 | -99.23267 | 17502 ft | 298 kts | 259° |
| 2026-05-07 19:17 | 38.30911 | -99.25832 | 18397 ft | 301 kts | 259° |
| 2026-05-07 19:17 | 38.30377 | -99.28414 | 19244 ft | 302 kts | 259° |
| 2026-05-07 19:17 | 38.29842 | -99.30998 | 20141 ft | 302 kts | 259° |
| 2026-05-07 19:17 | 38.29303 | -99.33593 | 21028 ft | 304 kts | 259° |
| 2026-05-07 19:18 | 38.28761 | -99.36198 | 21913 ft | 305 kts | 258° |
| 2026-05-07 19:18 | 38.28209 | -99.38859 | 22325 ft | 322 kts | 258° |
| 2026-05-07 19:18 | 38.27619 | -99.41718 | 22322 ft | 346 kts | 258° |
| 2026-05-07 19:18 | 38.26979 | -99.44778 | 22337 ft | 368 kts | 257° |
| 2026-05-07 19:19 | 38.26304 | -99.47985 | 22730 ft | 378 kts | 257° |
| 2026-05-07 19:19 | 38.25624 | -99.51218 | 23517 ft | 378 kts | 257° |
| 2026-05-07 19:19 | 38.24946 | -99.54461 | 24084 ft | 381 kts | 257° |
| 2026-05-07 19:19 | 38.24262 | -99.57730 | 24638 ft | 383 kts | 257° |
| 2026-05-07 19:20 | 38.23570 | -99.61018 | 25185 ft | 386 kts | 257° |
| 2026-05-07 19:20 | 38.22873 | -99.64325 | 25728 ft | 389 kts | 257° |
| 2026-05-07 19:20 | 38.22169 | -99.67661 | 26267 ft | 392 kts | 257° |
| 2026-05-07 19:20 | 38.21470 | -99.70977 | 26791 ft | 394 kts | 257° |
| 2026-05-07 19:21 | 38.20755 | -99.74355 | 27321 ft | 397 kts | 257° |
| 2026-05-07 19:21 | 38.20033 | -99.77761 | 27868 ft | 400 kts | 257° |
| 2026-05-07 19:21 | 38.19307 | -99.81185 | 28394 ft | 403 kts | 257° |
| 2026-05-07 19:21 | 38.18574 | -99.84636 | 28871 ft | 406 kts | 257° |
| 2026-05-07 19:22 | 38.17829 | -99.88134 | 29324 ft | 411 kts | 257° |
| 2026-05-07 19:22 | 38.17078 | -99.91656 | 29861 ft | 413 kts | 257° |
| 2026-05-07 19:22 | 38.16323 | -99.95193 | 30300 ft | 416 kts | 257° |
| 2026-05-07 19:22 | 38.15569 | -99.98721 | 30729 ft | 419 kts | 257° |
| 2026-05-07 19:23 | 38.14793 | -100.02343 | 31261 ft | 419 kts | 257° |
| 2026-05-07 19:23 | 38.14039 | -100.05850 | 31942 ft | 415 kts | 257° |
| 2026-05-07 19:23 | 38.13281 | -100.09377 | 32577 ft | 413 kts | 257° |
| 2026-05-07 19:23 | 38.12525 | -100.12892 | 33212 ft | 411 kts | 257° |
| 2026-05-07 19:24 | 38.11770 | -100.16394 | 33868 ft | 409 kts | 256° |
| 2026-05-07 19:24 | 38.11020 | -100.19867 | 34464 ft | 407 kts | 256° |
| 2026-05-07 19:24 | 38.10273 | -100.23318 | 35036 ft | 404 kts | 256° |
| 2026-05-07 19:24 | 38.09529 | -100.26753 | 35660 ft | 401 kts | 256° |
| 2026-05-07 19:25 | 38.08790 | -100.30157 | 36349 ft | 397 kts | 256° |
| 2026-05-07 19:25 | 38.08061 | -100.33516 | 37041 ft | 393 kts | 256° |
| 2026-05-07 19:25 | 38.07338 | -100.36839 | 37746 ft | 388 kts | 256° |
| 2026-05-07 19:25 | 38.06621 | -100.40127 | 38468 ft | 385 kts | 256° |
| 2026-05-07 19:26 | 38.05919 | -100.43345 | 39033 ft | 382 kts | 256° |
| 2026-05-07 19:26 | 38.05209 | -100.46594 | 39432 ft | 383 kts | 256° |
| 2026-05-07 19:26 | 38.04492 | -100.49869 | 39825 ft | 385 kts | 256° |
| 2026-05-07 19:26 | 38.03775 | -100.53139 | 40229 ft | 386 kts | 256° |
| 2026-05-07 19:27 | 38.03055 | -100.56422 | 40629 ft | 387 kts | 256° |
| 2026-05-07 19:27 | 38.02331 | -100.59712 | 40972 ft | 389 kts | 256° |
| 2026-05-07 19:27 | 38.01600 | -100.63033 | 41331 ft | 391 kts | 256° |
| 2026-05-07 19:27 | 38.00867 | -100.66356 | 41742 ft | 392 kts | 256° |
| 2026-05-07 19:28 | 38.00133 | -100.69684 | 42139 ft | 393 kts | 256° |
| 2026-05-07 19:28 | 37.99393 | -100.73028 | 42527 ft | 394 kts | 256° |
| 2026-05-07 19:28 | 37.98651 | -100.76378 | 42907 ft | 395 kts | 256° |
| 2026-05-07 19:28 | 37.97912 | -100.79710 | 42972 ft | 403 kts | 256° |
| 2026-05-07 19:29 | 37.96359 | -100.86698 | 43020 ft | 420 kts | 256° |
| 2026-05-07 19:29 | 37.94737 | -100.93972 | 43011 ft | 436 kts | 255° |
| 2026-05-07 19:30 | 37.93064 | -101.01449 | 43011 ft | 444 kts | 255° |
| 2026-05-07 19:30 | 37.91384 | -101.08933 | 42996 ft | 445 kts | 255° |
| 2026-05-07 19:31 | 37.89686 | -101.16473 | 42987 ft | 445 kts | 255° |
| 2026-05-07 19:31 | 37.87981 | -101.24016 | 42989 ft | 445 kts | 255° |
| 2026-05-07 19:32 | 37.86274 | -101.31546 | 42990 ft | 446 kts | 255° |
| 2026-05-07 19:32 | 37.84555 | -101.39107 | 43002 ft | 447 kts | 255° |
| 2026-05-07 19:33 | 37.82830 | -101.46666 | 43002 ft | 447 kts | 255° |
| 2026-05-07 19:33 | 37.81113 | -101.54168 | 42999 ft | 447 kts | 255° |
| 2026-05-07 19:34 | 37.79380 | -101.61712 | 43009 ft | 447 kts | 255° |
| 2026-05-07 19:34 | 37.77641 | -101.69260 | 43003 ft | 448 kts | 255° |
| 2026-05-07 19:35 | 37.75889 | -101.76839 | 43013 ft | 449 kts | 255° |
| 2026-05-07 19:35 | 37.74134 | -101.84404 | 43008 ft | 449 kts | 255° |
| 2026-05-07 19:36 | 37.72374 | -101.91971 | 43008 ft | 449 kts | 255° |
| 2026-05-07 19:36 | 37.70610 | -101.99528 | 42996 ft | 449 kts | 255° |
| 2026-05-07 19:37 | 37.68848 | -102.07055 | 42998 ft | 451 kts | 255° |
| 2026-05-07 19:37 | 37.67052 | -102.14695 | 42984 ft | 451 kts | 255° |
| 2026-05-07 19:38 | 37.65266 | -102.22275 | 42976 ft | 450 kts | 255° |
| 2026-05-07 19:38 | 37.63474 | -102.29856 | 42976 ft | 451 kts | 255° |
| 2026-05-07 19:39 | 37.61677 | -102.37433 | 42973 ft | 451 kts | 255° |
| 2026-05-07 19:39 | 37.59882 | -102.44980 | 42979 ft | 454 kts | 254° |
| 2026-05-07 19:40 | 37.58065 | -102.52589 | 42980 ft | 453 kts | 254° |
| 2026-05-07 19:40 | 37.56244 | -102.60197 | 42978 ft | 453 kts | 254° |
| 2026-05-07 19:41 | 37.54421 | -102.67786 | 42981 ft | 453 kts | 254° |
| 2026-05-07 19:41 | 37.52591 | -102.75377 | 42982 ft | 453 kts | 254° |
| 2026-05-07 19:42 | 37.50416 | -102.82850 | 42985 ft | 456 kts | 250° |
| 2026-05-07 19:42 | 37.48098 | -102.90224 | 42967 ft | 456 kts | 250° |
| 2026-05-07 19:43 | 37.45753 | -102.97592 | 42991 ft | 454 kts | 249° |
| 2026-05-07 19:43 | 37.43412 | -103.04957 | 42989 ft | 453 kts | 250° |
| 2026-05-07 19:44 | 37.41048 | -103.12367 | 42994 ft | 453 kts | 249° |
| 2026-05-07 19:44 | 37.38705 | -103.19693 | 42997 ft | 454 kts | 249° |
| 2026-05-07 19:45 | 37.36341 | -103.27067 | 43001 ft | 455 kts | 249° |
| 2026-05-07 19:45 | 37.33971 | -103.34437 | 43001 ft | 455 kts | 249° |
| 2026-05-07 19:46 | 37.31598 | -103.41804 | 43013 ft | 455 kts | 249° |
| 2026-05-07 19:46 | 37.29220 | -103.49162 | 43012 ft | 455 kts | 249° |
| 2026-05-07 19:47 | 37.26829 | -103.56544 | 43017 ft | 457 kts | 249° |
| 2026-05-07 19:47 | 37.24426 | -103.63943 | 43018 ft | 457 kts | 249° |
| 2026-05-07 19:48 | 37.22020 | -103.71331 | 43020 ft | 457 kts | 249° |
| 2026-05-07 19:48 | 37.19609 | -103.78719 | 43029 ft | 457 kts | 249° |
| 2026-05-07 19:49 | 37.17209 | -103.86053 | 43019 ft | 457 kts | 249° |
| 2026-05-07 19:49 | 37.14783 | -103.93447 | 43022 ft | 458 kts | 249° |
| 2026-05-07 19:50 | 37.12351 | -104.00841 | 43024 ft | 459 kts | 249° |
| 2026-05-07 19:50 | 37.09924 | -104.08201 | 43068 ft | 456 kts | 248° |
| 2026-05-07 19:51 | 37.07494 | -104.15555 | 43076 ft | 456 kts | 248° |
| 2026-05-07 19:51 | 37.05061 | -104.22896 | 43073 ft | 457 kts | 248° |
| 2026-05-07 19:52 | 37.03027 | -104.29018 | 43086 ft | 458 kts | 248° |
| 2026-05-07 19:52 | 37.00573 | -104.36392 | 43084 ft | 458 kts | 248° |
| 2026-05-07 19:53 | 36.98117 | -104.43749 | 43097 ft | 458 kts | 248° |
| 2026-05-07 19:53 | 36.95657 | -104.51102 | 43108 ft | 458 kts | 248° |
| 2026-05-07 19:54 | 36.93192 | -104.58451 | 43115 ft | 458 kts | 248° |
| 2026-05-07 19:54 | 36.90722 | -104.65797 | 43117 ft | 459 kts | 248° |
| 2026-05-07 19:55 | 36.88246 | -104.73143 | 43110 ft | 458 kts | 248° |
| 2026-05-07 19:55 | 36.85765 | -104.80484 | 43101 ft | 458 kts | 248° |
| 2026-05-07 19:56 | 36.83286 | -104.87804 | 43081 ft | 458 kts | 248° |
| 2026-05-07 19:56 | 36.80794 | -104.95143 | 43073 ft | 460 kts | 248° |
| 2026-05-07 19:57 | 36.78303 | -105.02459 | 43095 ft | 461 kts | 248° |
| 2026-05-07 19:57 | 36.75793 | -105.09815 | 43096 ft | 461 kts | 248° |
| 2026-05-07 19:58 | 36.73279 | -105.17163 | 43098 ft | 458 kts | 248° |
| 2026-05-07 19:58 | 36.70769 | -105.24484 | 43106 ft | 459 kts | 248° |
| 2026-05-07 19:59 | 36.68252 | -105.31805 | 43101 ft | 461 kts | 248° |
| 2026-05-07 19:59 | 36.65723 | -105.39143 | 43107 ft | 461 kts | 248° |
| 2026-05-07 20:00 | 36.63188 | -105.46481 | 43121 ft | 462 kts | 248° |
| 2026-05-07 20:00 | 36.60652 | -105.53804 | 43121 ft | 462 kts | 247° |
| 2026-05-07 20:01 | 36.58113 | -105.61121 | 43112 ft | 461 kts | 247° |
| 2026-05-07 20:01 | 36.55560 | -105.68458 | 43103 ft | 464 kts | 247° |
| 2026-05-07 20:02 | 36.53008 | -105.75771 | 43093 ft | 464 kts | 247° |
| 2026-05-07 20:02 | 36.50435 | -105.83133 | 43078 ft | 464 kts | 247° |
| 2026-05-07 20:03 | 36.47854 | -105.90495 | 43076 ft | 464 kts | 247° |
| 2026-05-07 20:03 | 36.45271 | -105.97847 | 43072 ft | 464 kts | 247° |
| 2026-05-07 20:04 | 36.42676 | -106.05217 | 43056 ft | 466 kts | 247° |
| 2026-05-07 20:04 | 36.40068 | -106.12603 | 43051 ft | 466 kts | 247° |
| 2026-05-07 20:05 | 36.37458 | -106.19978 | 43056 ft | 467 kts | 247° |
| 2026-05-07 20:05 | 36.34701 | -106.27220 | 43043 ft | 465 kts | 241° |
| 2026-05-07 20:06 | 36.31472 | -106.34203 | 43072 ft | 466 kts | 241° |
| 2026-05-07 20:06 | 36.28251 | -106.41236 | 43061 ft | 469 kts | 241° |
| 2026-05-07 20:07 | 36.25004 | -106.48242 | 43063 ft | 469 kts | 241° |
| 2026-05-07 20:07 | 36.21768 | -106.55258 | 43073 ft | 469 kts | 241° |
| 2026-05-07 20:08 | 36.18514 | -106.62267 | 43066 ft | 469 kts | 241° |
| 2026-05-07 20:08 | 36.15287 | -106.69224 | 43070 ft | 469 kts | 241° |
| 2026-05-07 20:09 | 36.12014 | -106.76252 | 43057 ft | 471 kts | 241° |
| 2026-05-07 20:10 | 36.07102 | -106.86781 | 43073 ft | 471 kts | 241° |
| 2026-05-07 20:10 | 36.03818 | -106.93795 | 43077 ft | 471 kts | 240° |
| 2026-05-07 20:11 | 36.00534 | -107.00805 | 43056 ft | 472 kts | 240° |
| 2026-05-07 20:11 | 35.97244 | -107.07809 | 43067 ft | 473 kts | 240° |
| 2026-05-07 20:12 | 35.93941 | -107.14825 | 43070 ft | 473 kts | 240° |
| 2026-05-07 20:12 | 35.90633 | -107.21838 | 43073 ft | 473 kts | 240° |
| 2026-05-07 20:13 | 35.87321 | -107.28844 | 43077 ft | 473 kts | 240° |
| 2026-05-07 20:13 | 35.84005 | -107.35844 | 43079 ft | 473 kts | 240° |
| 2026-05-07 20:14 | 35.80702 | -107.42805 | 43066 ft | 476 kts | 240° |
| 2026-05-07 20:14 | 35.77360 | -107.49832 | 43067 ft | 475 kts | 240° |
| 2026-05-07 20:15 | 35.74017 | -107.56848 | 43068 ft | 475 kts | 240° |
| 2026-05-07 20:15 | 35.70667 | -107.63860 | 43058 ft | 475 kts | 240° |
| 2026-05-07 20:16 | 35.67315 | -107.70865 | 43062 ft | 475 kts | 240° |
| 2026-05-07 20:16 | 35.63956 | -107.77868 | 43059 ft | 478 kts | 240° |
| 2026-05-07 20:17 | 35.60576 | -107.84903 | 43064 ft | 478 kts | 240° |
| 2026-05-07 20:17 | 35.57192 | -107.91929 | 43036 ft | 478 kts | 239° |
| 2026-05-07 20:18 | 35.53805 | -107.98949 | 43042 ft | 477 kts | 239° |
| 2026-05-07 20:18 | 35.50417 | -108.05956 | 43040 ft | 477 kts | 239° |
| 2026-05-07 20:19 | 35.47022 | -108.12965 | 43035 ft | 478 kts | 239° |
| 2026-05-07 20:19 | 35.43648 | -108.19915 | 43018 ft | 478 kts | 239° |
| 2026-05-07 20:20 | 35.40250 | -108.26899 | 43017 ft | 477 kts | 239° |
| 2026-05-07 20:20 | 35.36839 | -108.33897 | 43016 ft | 478 kts | 239° |
| 2026-05-07 20:21 | 35.33427 | -108.40883 | 43017 ft | 478 kts | 239° |
| 2026-05-07 20:21 | 35.30003 | -108.47880 | 42988 ft | 479 kts | 239° |
| 2026-05-07 20:22 | 35.26571 | -108.54878 | 42991 ft | 479 kts | 239° |
| 2026-05-07 20:22 | 35.23159 | -108.61821 | 42987 ft | 479 kts | 239° |
| 2026-05-07 20:23 | 35.19722 | -108.68803 | 42987 ft | 479 kts | 239° |
| 2026-05-07 20:23 | 35.16276 | -108.75785 | 42992 ft | 479 kts | 239° |
| 2026-05-07 20:24 | 35.12815 | -108.82787 | 42973 ft | 482 kts | 239° |
| 2026-05-07 20:24 | 35.09348 | -108.89786 | 42973 ft | 482 kts | 239° |
| 2026-05-07 20:25 | 35.05873 | -108.96788 | 42985 ft | 482 kts | 239° |
| 2026-05-07 20:25 | 35.02393 | -109.03785 | 42987 ft | 482 kts | 239° |
| 2026-05-07 20:26 | 34.98907 | -109.10780 | 42992 ft | 482 kts | 239° |
| 2026-05-07 20:26 | 34.95639 | -109.17940 | 42984 ft | 484 kts | 246° |
| 2026-05-07 20:27 | 34.92949 | -109.25470 | 42988 ft | 484 kts | 246° |
| 2026-05-07 20:27 | 34.90191 | -109.32955 | 42999 ft | 484 kts | 245° |
| 2026-05-07 20:28 | 34.87481 | -109.40404 | 43003 ft | 484 kts | 246° |
| 2026-05-07 20:28 | 34.84732 | -109.47891 | 43011 ft | 486 kts | 245° |
| 2026-05-07 20:29 | 34.81967 | -109.55423 | 43018 ft | 487 kts | 245° |
| 2026-05-07 20:29 | 34.79197 | -109.62946 | 43012 ft | 487 kts | 245° |
| 2026-05-07 20:30 | 34.76420 | -109.70466 | 43008 ft | 487 kts | 245° |
| 2026-05-07 20:30 | 34.73637 | -109.77984 | 43009 ft | 487 kts | 245° |
| 2026-05-07 20:31 | 34.70847 | -109.85502 | 42873 ft | 483 kts | 245° |
| 2026-05-07 20:31 | 34.69487 | -109.89164 | 42209 ft | 469 kts | 245° |
| 2026-05-07 20:31 | 34.68159 | -109.92737 | 41597 ft | 457 kts | 245° |
| 2026-05-07 20:31 | 34.66864 | -109.96216 | 41010 ft | 447 kts | 245° |
| 2026-05-07 20:32 | 34.65588 | -109.99642 | 40429 ft | 443 kts | 245° |
| 2026-05-07 20:32 | 34.64325 | -110.03026 | 39857 ft | 448 kts | 245° |
| 2026-05-07 20:32 | 34.63011 | -110.06547 | 39263 ft | 456 kts | 245° |
| 2026-05-07 20:32 | 34.61709 | -110.10033 | 38673 ft | 461 kts | 245° |
| 2026-05-07 20:33 | 34.60368 | -110.13616 | 38009 ft | 467 kts | 245° |
| 2026-05-07 20:33 | 34.59012 | -110.17236 | 37392 ft | 473 kts | 246° |
| 2026-05-07 20:33 | 34.57646 | -110.20878 | 36782 ft | 476 kts | 246° |
| 2026-05-07 20:33 | 34.56266 | -110.24551 | 36144 ft | 479 kts | 246° |
| 2026-05-07 20:34 | 34.54875 | -110.28254 | 35512 ft | 484 kts | 246° |
| 2026-05-07 20:34 | 34.53471 | -110.31987 | 34871 ft | 489 kts | 246° |
| 2026-05-07 20:34 | 34.52071 | -110.35702 | 34242 ft | 493 kts | 247° |
| 2026-05-07 20:34 | 34.50639 | -110.39501 | 33550 ft | 495 kts | 247° |
| 2026-05-07 20:35 | 34.49228 | -110.43233 | 32897 ft | 478 kts | 247° |
| 2026-05-07 20:35 | 34.47859 | -110.46851 | 32320 ft | 467 kts | 247° |
| 2026-05-07 20:35 | 34.46510 | -110.50420 | 31748 ft | 466 kts | 247° |
| 2026-05-07 20:35 | 34.45159 | -110.53988 | 31180 ft | 464 kts | 247° |
| 2026-05-07 20:36 | 34.43814 | -110.57530 | 30601 ft | 461 kts | 246° |
| 2026-05-07 20:36 | 34.42475 | -110.61053 | 30027 ft | 458 kts | 246° |
| 2026-05-07 20:36 | 34.41149 | -110.64541 | 29424 ft | 453 kts | 246° |
| 2026-05-07 20:36 | 34.39855 | -110.67943 | 28876 ft | 448 kts | 246° |
| 2026-05-07 20:37 | 34.38978 | -110.70244 | 28498 ft | 445 kts | 246° |
| 2026-05-07 20:37 | 34.37267 | -110.74731 | 27763 ft | 440 kts | 246° |
| 2026-05-07 20:37 | 34.36401 | -110.76999 | 27395 ft | 438 kts | 246° |
| 2026-05-07 20:37 | 34.34253 | -110.81075 | 26650 ft | 433 kts | 227° |
| 2026-05-07 20:38 | 34.32867 | -110.82876 | 26322 ft | 433 kts | 226° |
| 2026-05-07 20:38 | 34.30135 | -110.86364 | 25619 ft | 428 kts | 226° |
| 2026-05-07 20:38 | 34.28765 | -110.88135 | 25247 ft | 426 kts | 226° |
| 2026-05-07 20:38 | 34.26763 | -110.90746 | 24725 ft | 421 kts | 226° |
| 2026-05-07 20:39 | 34.24800 | -110.93294 | 24222 ft | 417 kts | 226° |
| 2026-05-07 20:39 | 34.22821 | -110.95838 | 23718 ft | 414 kts | 226° |
| 2026-05-07 20:39 | 34.20859 | -110.98361 | 23172 ft | 410 kts | 226° |
| 2026-05-07 20:39 | 34.18925 | -111.00861 | 22649 ft | 405 kts | 226° |
| 2026-05-07 20:40 | 34.17003 | -111.03344 | 22155 ft | 403 kts | 226° |
| 2026-05-07 20:40 | 34.15090 | -111.05805 | 21667 ft | 400 kts | 226° |
| 2026-05-07 20:40 | 34.13209 | -111.08222 | 21185 ft | 387 kts | 226° |
| 2026-05-07 20:40 | 34.11383 | -111.10573 | 20718 ft | 381 kts | 226° |
| 2026-05-07 20:41 | 34.09578 | -111.12893 | 20250 ft | 378 kts | 226° |
| 2026-05-07 20:41 | 34.07782 | -111.15200 | 19770 ft | 377 kts | 226° |
| 2026-05-07 20:41 | 34.06005 | -111.17480 | 19304 ft | 376 kts | 226° |
| 2026-05-07 20:41 | 34.04199 | -111.19798 | 18844 ft | 373 kts | 226° |
| 2026-05-07 20:42 | 34.02458 | -111.22046 | 18381 ft | 369 kts | 226° |
| 2026-05-07 20:42 | 34.00703 | -111.24290 | 17876 ft | 366 kts | 226° |
| 2026-05-07 20:42 | 33.98960 | -111.26507 | 17403 ft | 362 kts | 226° |
| 2026-05-07 20:42 | 33.97241 | -111.28702 | 16937 ft | 359 kts | 226° |
| 2026-05-07 20:43 | 33.95539 | -111.30884 | 16483 ft | 355 kts | 226° |
| 2026-05-07 20:43 | 33.93854 | -111.33038 | 16021 ft | 351 kts | 226° |
| 2026-05-07 20:43 | 33.92181 | -111.35171 | 15571 ft | 347 kts | 226° |
| 2026-05-07 20:43 | 33.90530 | -111.37276 | 15127 ft | 344 kts | 226° |
| 2026-05-07 20:44 | 33.88907 | -111.39347 | 14694 ft | 334 kts | 227° |
| 2026-05-07 20:44 | 33.87222 | -111.41192 | 14268 ft | 324 kts | 216° |
| 2026-05-07 20:44 | 33.85396 | -111.42748 | 13892 ft | 320 kts | 214° |
| 2026-05-07 20:44 | 33.83574 | -111.44277 | 13474 ft | 318 kts | 215° |
| 2026-05-07 20:45 | 33.81798 | -111.45805 | 13078 ft | 321 kts | 215° |
| 2026-05-07 20:45 | 33.79976 | -111.47389 | 12666 ft | 322 kts | 216° |
| 2026-05-07 20:45 | 33.78161 | -111.48953 | 12275 ft | 319 kts | 215° |
| 2026-05-07 20:45 | 33.76366 | -111.50490 | 11879 ft | 315 kts | 215° |
| 2026-05-07 20:46 | 33.74592 | -111.52012 | 11493 ft | 312 kts | 216° |
| 2026-05-07 20:46 | 33.72833 | -111.53526 | 11105 ft | 309 kts | 216° |
| 2026-05-07 20:46 | 33.71099 | -111.55015 | 10720 ft | 301 kts | 216° |
| 2026-05-07 20:46 | 33.69429 | -111.56448 | 10357 ft | 289 kts | 216° |
| 2026-05-07 20:47 | 33.67826 | -111.57822 | 10011 ft | 278 kts | 216° |
| 2026-05-07 20:47 | 33.66280 | -111.59147 | 9663 ft | 268 kts | 216° |
| 2026-05-07 20:47 | 33.64782 | -111.60430 | 9331 ft | 261 kts | 216° |
| 2026-05-07 20:47 | 33.63318 | -111.61676 | 9015 ft | 255 kts | 215° |
| 2026-05-07 20:48 | 33.61870 | -111.62880 | 8712 ft | 251 kts | 215° |
| 2026-05-07 20:48 | 33.60439 | -111.64069 | 8381 ft | 250 kts | 215° |
| 2026-05-07 20:48 | 33.59022 | -111.65246 | 8097 ft | 246 kts | 215° |
| 2026-05-07 20:48 | 33.57624 | -111.66417 | 7799 ft | 244 kts | 216° |
| 2026-05-07 20:49 | 33.56234 | -111.67586 | 7504 ft | 243 kts | 216° |
| 2026-05-07 20:49 | 33.54865 | -111.68737 | 7209 ft | 242 kts | 216° |
| 2026-05-07 20:49 | 33.53493 | -111.69899 | 6911 ft | 239 kts | 216° |
| 2026-05-07 20:49 | 33.52134 | -111.71051 | 6612 ft | 239 kts | 216° |
| 2026-05-07 20:50 | 33.50771 | -111.72201 | 6306 ft | 238 kts | 216° |
| 2026-05-07 20:50 | 33.49423 | -111.73338 | 5982 ft | 236 kts | 216° |
| 2026-05-07 20:50 | 33.48081 | -111.74470 | 5674 ft | 235 kts | 216° |
| 2026-05-07 20:50 | 33.46777 | -111.75632 | 5357 ft | 233 kts | 223° |
| 2026-05-07 20:51 | 33.45750 | -111.77117 | 5032 ft | 231 kts | 234° |
| 2026-05-07 20:51 | 33.44793 | -111.78653 | 4740 ft | 229 kts | 233° |
| 2026-05-07 20:51 | 33.43820 | -111.80162 | 4442 ft | 228 kts | 232° |
| 2026-05-07 20:51 | 33.43125 | -111.81787 | 4385 ft | 222 kts | 259° |
| 2026-05-07 20:52 | 33.43073 | -111.83582 | 4234 ft | 207 kts | 270° |
| 2026-05-07 20:52 | 33.43087 | -111.85272 | 3899 ft | 199 kts | 270° |
| 2026-05-07 20:52 | 33.43091 | -111.86913 | 3457 ft | 198 kts | 270° |
| 2026-05-07 20:52 | 33.43092 | -111.88470 | 2922 ft | 178 kts | 270° |
| 2026-05-07 20:53 | 33.43094 | -111.89868 | 2685 ft | 159 kts | 270° |
| 2026-05-07 20:53 | 33.43096 | -111.91103 | 2487 ft | 141 kts | 270° |
| 2026-05-07 20:53 | 33.43098 | -111.92265 | 2303 ft | 139 kts | 269° |
| 2026-05-07 20:53 | 33.43109 | -111.93423 | 2090 ft | 138 kts | 274° |
| 2026-05-07 20:54 | 33.43335 | -111.94524 | 1932 ft | 136 kts | 288° |
| 2026-05-07 20:54 | 33.43654 | -111.95591 | 1800 ft | 136 kts | 289° |
| 2026-05-07 20:54 | 33.43941 | -111.96677 | 1612 ft | 137 kts | 283° |
| 2026-05-07 20:54 | 33.44066 | -111.97809 | 1400 ft | 137 kts | 273° |
| 2026-05-07 20:55 | 33.44083 | -111.98949 | 1218 ft | 136 kts | 270° |
| 2026-05-07 20:55 | 33.44080 | -112.00005 | 1132 ft | 113 kts | 269° |
| 2026-05-07 20:55 | 33.44080 | -112.00594 | 1127 ft | 42 kts | 271° |
| 2026-05-07 20:55 | 33.44109 | -112.00733 | 1118 ft | 8 kts | 350° |
| 2026-05-07 20:56 | 33.44154 | -112.00737 | 1126 ft | 6 kts | 355° |
| 2026-05-07 20:56 | 33.44164 | -112.00738 | 1126 ft | 0 kts | 356° |
| 2026-05-07 20:56 | 33.44192 | -112.00779 | 1108 ft | 12 kts | 276° |
| 2026-05-07 20:57 | 33.44194 | -112.00877 | 1127 ft | 11 kts | 270° |
| 2026-05-07 20:57 | 33.44195 | -112.00966 | 1128 ft | 10 kts | 270° |
| 2026-05-07 20:57 | 33.44194 | -112.01055 | 1128 ft | 12 kts | 270° |
| 2026-05-07 20:57 | 33.44194 | -112.01170 | 1127 ft | 16 kts | 269° |
| 2026-05-07 20:58 | 33.44195 | -112.01317 | 1128 ft | 19 kts | 269° |
| 2026-05-07 20:58 | 33.44193 | -112.01487 | 1128 ft | 20 kts | 269° |
| 2026-05-07 20:58 | 33.44191 | -112.01646 | 1127 ft | 18 kts | 272° |
| 2026-05-07 20:58 | 33.44194 | -112.01786 | 1126 ft | 16 kts | 270° |
| 2026-05-07 20:59 | 33.44194 | -112.01919 | 1126 ft | 16 kts | 269° |
| 2026-05-07 20:59 | 33.44194 | -112.02046 | 1125 ft | 15 kts | 267° |
| 2026-05-07 20:59 | 33.44236 | -112.02126 | 1124 ft | 8 kts | 335° |
| 2026-05-07 20:59 | 33.44244 | -112.02150 | 1121 ft | 2 kts | 240° |
| 2026-05-07 21:00 | 33.44234 | -112.02162 | 1125 ft | 0 kts | 168° |
| 2026-05-07 21:00 | 33.44228 | -112.02156 | 1125 ft | 1 kts | 145° |
| 2026-05-07 21:00 | 33.44227 | -112.02155 | 1125 ft | 0 kts | 144° |